sensor_id;sensor_type;location;lat;lon;timestamp;temperature;humidity
1534;DHT22;760;48.822;9.304;2022-12-07T05:05:55;3.40;99.90
1534;DHT22;760;48.822;9.304;2022-12-07T05:08:21;3.50;99.90
1534;DHT22;760;48.822;9.304;2022-12-07T05:10:48;3.40;99.90
1534;DHT22;760;48.822;9.304;2022-12-07T05:13:14;3.50;99.90
1534;DHT22;760;48.822;9.304;2022-12-07T05:15:40;3.50;99.90
1534;DHT22;760;48.822;9.304;2022-12-07T05:18:05;3.40;99.90
1534;DHT22;760;48.822;9.304;2022-12-07T05:20:31;3.30;99.90
1534;DHT22;760;48.822;9.304;2022-12-07T05:22:57;3.30;99.90
1534;DHT22;760;48.822;9.304;2022-12-07T05:25:24;3.30;99.90
1534;DHT22;760;48.822;9.304;2022-12-07T05:27:49;3.20;99.90
1534;DHT22;760;48.822;9.304;2022-12-07T05:30:15;3.20;99.90
1534;DHT22;760;48.822;9.304;2022-12-07T05:32:41;3.20;99.90
1534;DHT22;760;48.822;9.304;2022-12-07T05:35:06;3.20;99.90
1534;DHT22;760;48.822;9.304;2022-12-07T05:37:32;3.20;99.90
1534;DHT22;760;48.822;9.304;2022-12-07T05:39:58;3.20;99.90
1534;DHT22;760;48.822;9.304;2022-12-07T05:42:23;3.10;99.90
1534;DHT22;760;48.822;9.304;2022-12-07T05:44:49;3.10;99.90
1534;DHT22;760;48.822;9.304;2022-12-07T05:47:15;3.10;99.90
1534;DHT22;760;48.822;9.304;2022-12-07T05:49:41;3.10;99.90
1534;DHT22;760;48.822;9.304;2022-12-07T05:52:07;3.10;99.90
1534;DHT22;760;48.822;9.304;2022-12-07T05:54:33;3.10;99.90
1534;DHT22;760;48.822;9.304;2022-12-07T05:56:59;3.10;99.90
1534;DHT22;760;48.822;9.304;2022-12-07T05:59:25;3.10;99.90
1534;DHT22;760;48.822;9.304;2022-12-07T06:04:20;3.20;99.90
1534;DHT22;760;48.822;9.304;2022-12-07T06:06:46;3.20;99.90
1534;DHT22;760;48.822;9.304;2022-12-07T06:09:12;3.20;99.90
1534;DHT22;760;48.822;9.304;2022-12-07T06:11:39;3.30;99.90
1534;DHT22;760;48.822;9.304;2022-12-07T06:14:23;3.30;99.90
1534;DHT22;760;48.822;9.304;2022-12-07T06:16:48;3.30;99.90
1534;DHT22;760;48.822;9.304;2022-12-07T06:19:14;3.20;99.90
1534;DHT22;760;48.822;9.304;2022-12-07T06:21:40;3.20;99.90
1534;DHT22;760;48.822;9.304;2022-12-07T06:24:06;3.20;99.90
1534;DHT22;760;48.822;9.304;2022-12-07T06:26:31;3.20;99.90
1534;DHT22;760;48.822;9.304;2022-12-07T06:28:57;3.10;99.90
1534;DHT22;760;48.822;9.304;2022-12-07T06:31:23;3.20;99.90
1534;DHT22;760;48.822;9.304;2022-12-07T06:33:48;3.20;99.90
1534;DHT22;760;48.822;9.304;2022-12-07T06:36:14;3.30;99.90
1534;DHT22;760;48.822;9.304;2022-12-07T06:38:40;3.30;99.90
1534;DHT22;760;48.822;9.304;2022-12-07T06:41:05;3.30;99.90
1534;DHT22;760;48.822;9.304;2022-12-07T06:43:32;3.30;99.90
1534;DHT22;760;48.822;9.304;2022-12-07T06:45:57;3.30;99.90
1534;DHT22;760;48.822;9.304;2022-12-07T06:48:23;3.30;99.90
1534;DHT22;760;48.822;9.304;2022-12-07T06:50:49;3.30;99.90
1534;DHT22;760;48.822;9.304;2022-12-07T06:53:14;3.30;99.90
1534;DHT22;760;48.822;9.304;2022-12-07T06:55:40;3.40;99.90
1534;DHT22;760;48.822;9.304;2022-12-07T06:58:06;3.40;99.90
1534;DHT22;760;48.822;9.304;2022-12-07T07:00:32;3.40;99.90
1534;DHT22;760;48.822;9.304;2022-12-07T07:03:00;3.50;99.90
1534;DHT22;760;48.822;9.304;2022-12-07T07:05:25;3.50;99.90
1534;DHT22;760;48.822;9.304;2022-12-07T07:07:51;3.60;99.90
1534;DHT22;760;48.822;9.304;2022-12-07T07:10:16;3.60;99.90
1534;DHT22;760;48.822;9.304;2022-12-07T07:12:42;3.60;99.90
1534;DHT22;760;48.822;9.304;2022-12-07T07:15:08;3.60;99.90
1534;DHT22;760;48.822;9.304;2022-12-07T07:17:35;3.70;99.90
1534;DHT22;760;48.822;9.304;2022-12-07T07:20:00;3.70;99.90
1534;DHT22;760;48.822;9.304;2022-12-07T07:22:26;3.70;99.90
1534;DHT22;760;48.822;9.304;2022-12-07T07:24:52;3.80;99.90
1534;DHT22;760;48.822;9.304;2022-12-07T07:27:17;3.80;99.90
1534;DHT22;760;48.822;9.304;2022-12-07T07:29:43;3.90;99.90
1534;DHT22;760;48.822;9.304;2022-12-07T07:32:08;3.90;99.90
1534;DHT22;760;48.822;9.304;2022-12-07T07:34:34;3.90;99.90
1534;DHT22;760;48.822;9.304;2022-12-07T07:37:00;4.00;99.90
1534;DHT22;760;48.822;9.304;2022-12-07T07:39:25;4.00;99.90
1534;DHT22;760;48.822;9.304;2022-12-07T07:41:51;4.00;99.90
1534;DHT22;760;48.822;9.304;2022-12-07T07:44:16;4.00;99.90
1534;DHT22;760;48.822;9.304;2022-12-07T07:46:42;4.10;99.90
1534;DHT22;760;48.822;9.304;2022-12-07T07:49:09;4.10;99.90
1534;DHT22;760;48.822;9.304;2022-12-07T07:51:36;4.20;99.90
1534;DHT22;760;48.822;9.304;2022-12-07T07:54:01;4.20;99.90
1534;DHT22;760;48.822;9.304;2022-12-07T07:56:27;4.20;99.90
1534;DHT22;760;48.822;9.304;2022-12-07T07:58:53;4.20;99.90
1534;DHT22;760;48.822;9.304;2022-12-07T08:01:19;4.30;99.90
1534;DHT22;760;48.822;9.304;2022-12-07T08:03:48;4.30;99.90
1534;DHT22;760;48.822;9.304;2022-12-07T08:06:14;4.40;99.90
1534;DHT22;760;48.822;9.304;2022-12-07T08:08:39;4.40;99.90
1534;DHT22;760;48.822;9.304;2022-12-07T08:11:06;4.40;99.90
1534;DHT22;760;48.822;9.304;2022-12-07T08:13:32;4.50;99.90
1534;DHT22;760;48.822;9.304;2022-12-07T08:15:58;4.50;99.90
1534;DHT22;760;48.822;9.304;2022-12-07T08:18:23;4.50;99.90
1534;DHT22;760;48.822;9.304;2022-12-07T08:20:49;4.60;99.90
1534;DHT22;760;48.822;9.304;2022-12-07T08:23:14;4.70;99.90
1534;DHT22;760;48.822;9.304;2022-12-07T08:25:40;4.80;99.90
1534;DHT22;760;48.822;9.304;2022-12-07T08:28:06;4.80;99.90
1534;DHT22;760;48.822;9.304;2022-12-07T08:30:32;4.90;99.90
1534;DHT22;760;48.822;9.304;2022-12-07T08:32:58;5.00;99.90
1534;DHT22;760;48.822;9.304;2022-12-07T08:35:24;5.10;99.90
1534;DHT22;760;48.822;9.304;2022-12-07T08:37:50;5.20;99.90
1534;DHT22;760;48.822;9.304;2022-12-07T08:40:16;5.30;99.90
1534;DHT22;760;48.822;9.304;2022-12-07T08:42:48;5.30;99.90
1534;DHT22;760;48.822;9.304;2022-12-07T08:45:15;5.40;99.90
1534;DHT22;760;48.822;9.304;2022-12-07T08:47:44;5.50;99.90
1534;DHT22;760;48.822;9.304;2022-12-07T08:50:11;5.50;99.90
1534;DHT22;760;48.822;9.304;2022-12-07T08:52:37;5.60;99.90
1534;DHT22;760;48.822;9.304;2022-12-07T08:55:05;5.60;99.90
1534;DHT22;760;48.822;9.304;2022-12-07T08:57:32;5.70;99.90
1534;DHT22;760;48.822;9.304;2022-12-07T08:59:59;5.70;99.90
1534;DHT22;760;48.822;9.304;2022-12-07T09:02:25;5.80;99.90
1534;DHT22;760;48.822;9.304;2022-12-07T09:04:51;5.80;99.90
1534;DHT22;760;48.822;9.304;2022-12-07T09:07:16;5.90;99.90
1534;DHT22;760;48.822;9.304;2022-12-07T09:09:42;5.90;99.90
1534;DHT22;760;48.822;9.304;2022-12-07T09:12:08;6.00;99.90
1534;DHT22;760;48.822;9.304;2022-12-07T09:14:34;6.20;99.90
1534;DHT22;760;48.822;9.304;2022-12-07T09:17:11;6.30;99.90
1534;DHT22;760;48.822;9.304;2022-12-07T09:19:37;6.30;99.90
1534;DHT22;760;48.822;9.304;2022-12-07T09:22:03;6.40;99.90
1534;DHT22;760;48.822;9.304;2022-12-07T09:24:33;6.50;99.90
1534;DHT22;760;48.822;9.304;2022-12-07T09:26:58;6.60;99.90
1534;DHT22;760;48.822;9.304;2022-12-07T09:29:24;6.70;99.90
1534;DHT22;760;48.822;9.304;2022-12-07T09:31:51;6.80;99.90
1534;DHT22;760;48.822;9.304;2022-12-07T09:34:17;6.80;99.90
1534;DHT22;760;48.822;9.304;2022-12-07T09:36:43;7.00;99.90
1534;DHT22;760;48.822;9.304;2022-12-07T09:39:09;7.10;99.90
1534;DHT22;760;48.822;9.304;2022-12-07T09:41:41;7.20;99.90
1534;DHT22;760;48.822;9.304;2022-12-07T09:44:13;7.30;99.90
1534;DHT22;760;48.822;9.304;2022-12-07T09:46:41;7.40;99.90
1534;DHT22;760;48.822;9.304;2022-12-07T09:49:18;7.50;99.90
1534;DHT22;760;48.822;9.304;2022-12-07T09:51:44;7.60;99.90
1534;DHT22;760;48.822;9.304;2022-12-07T09:54:15;7.60;99.90
1534;DHT22;760;48.822;9.304;2022-12-07T09:56:42;7.70;99.90
1534;DHT22;760;48.822;9.304;2022-12-07T09:59:17;7.70;99.90
1534;DHT22;760;48.822;9.304;2022-12-07T10:01:45;7.70;99.90
1534;DHT22;760;48.822;9.304;2022-12-07T10:04:35;7.60;99.90
1534;DHT22;760;48.822;9.304;2022-12-07T10:07:00;7.50;99.90
1534;DHT22;760;48.822;9.304;2022-12-07T10:09:25;7.40;99.90
1534;DHT22;760;48.822;9.304;2022-12-07T10:12:11;7.40;99.90
1534;DHT22;760;48.822;9.304;2022-12-07T10:14:54;7.40;99.90
1534;DHT22;760;48.822;9.304;2022-12-07T10:22:37;7.30;99.90
1534;DHT22;760;48.822;9.304;2022-12-07T10:25:18;7.30;99.90
1534;DHT22;760;48.822;9.304;2022-12-07T10:28:00;7.20;99.90
1534;DHT22;760;48.822;9.304;2022-12-07T10:30:26;7.10;99.90
1534;DHT22;760;48.822;9.304;2022-12-07T10:32:52;7.10;99.90
1534;DHT22;760;48.822;9.304;2022-12-07T10:35:29;7.00;99.90
1534;DHT22;760;48.822;9.304;2022-12-07T10:37:57;6.90;99.90
1534;DHT22;760;48.822;9.304;2022-12-07T10:40:31;6.90;99.90
1534;DHT22;760;48.822;9.304;2022-12-07T10:43:05;6.80;99.90
1534;DHT22;760;48.822;9.304;2022-12-07T10:45:32;6.70;99.90
1534;DHT22;760;48.822;9.304;2022-12-07T10:56:29;6.70;99.90
1534;DHT22;760;48.822;9.304;2022-12-07T10:59:28;6.70;99.90
1534;DHT22;760;48.822;9.304;2022-12-07T11:04:44;6.70;99.90
1534;DHT22;760;48.822;9.304;2022-12-07T11:10:26;6.70;99.90
1534;DHT22;760;48.822;9.304;2022-12-07T11:13:37;6.80;99.90
1534;DHT22;760;48.822;9.304;2022-12-07T11:16:23;6.80;99.90
1534;DHT22;760;48.822;9.304;2022-12-07T11:19:15;6.80;99.90
1534;DHT22;760;48.822;9.304;2022-12-07T11:21:55;6.80;99.90
1534;DHT22;760;48.822;9.304;2022-12-07T11:29:51;6.70;99.90
1534;DHT22;760;48.822;9.304;2022-12-07T11:35:44;6.60;99.90
1534;DHT22;760;48.822;9.304;2022-12-07T11:38:14;6.60;99.90
1534;DHT22;760;48.822;9.304;2022-12-07T11:40:45;6.60;99.90
1534;DHT22;760;48.822;9.304;2022-12-07T11:43:24;6.60;99.90
1534;DHT22;760;48.822;9.304;2022-12-07T11:46:02;6.50;99.90
1534;DHT22;760;48.822;9.304;2022-12-07T11:48:55;6.50;99.90
1534;DHT22;760;48.822;9.304;2022-12-07T11:51:24;6.40;99.90
1534;DHT22;760;48.822;9.304;2022-12-07T11:54:01;6.40;99.90
1534;DHT22;760;48.822;9.304;2022-12-07T11:56:29;6.40;99.90
1534;DHT22;760;48.822;9.304;2022-12-07T11:59:11;6.30;99.90
1534;DHT22;760;48.822;9.304;2022-12-07T12:06:36;6.10;99.90
1534;DHT22;760;48.822;9.304;2022-12-07T12:14:37;6.10;99.90
1534;DHT22;760;48.822;9.304;2022-12-07T12:20:32;6.00;99.90
1534;DHT22;760;48.822;9.304;2022-12-07T12:25:45;5.90;99.90
1534;DHT22;760;48.822;9.304;2022-12-07T12:28:41;5.90;99.90
1534;DHT22;760;48.822;9.304;2022-12-07T12:33:56;5.90;99.90
1534;DHT22;760;48.822;9.304;2022-12-07T12:36:26;5.90;99.90
1534;DHT22;760;48.822;9.304;2022-12-07T12:49:41;6.10;99.90
1534;DHT22;760;48.822;9.304;2022-12-07T12:57:36;6.10;99.90
1534;DHT22;760;48.822;9.304;2022-12-07T13:00:19;6.20;99.90
1534;DHT22;760;48.822;9.304;2022-12-07T13:02:54;6.20;99.90
1534;DHT22;760;48.822;9.304;2022-12-07T13:05:26;6.30;99.90
1534;DHT22;760;48.822;9.304;2022-12-07T13:07:58;6.30;99.90
1534;DHT22;760;48.822;9.304;2022-12-07T13:15:43;6.30;99.90
1534;DHT22;760;48.822;9.304;2022-12-07T13:28:48;6.20;99.90
1534;DHT22;760;48.822;9.304;2022-12-07T13:31:23;6.10;99.90
1534;DHT22;760;48.822;9.304;2022-12-07T13:33:51;6.10;99.90
1534;DHT22;760;48.822;9.304;2022-12-07T13:36:27;6.10;99.90
1534;DHT22;760;48.822;9.304;2022-12-07T13:38:59;6.10;99.90
1534;DHT22;760;48.822;9.304;2022-12-07T13:41:26;6.10;99.90
1534;DHT22;760;48.822;9.304;2022-12-07T13:44:13;6.10;99.90
1534;DHT22;760;48.822;9.304;2022-12-07T13:49:29;6.00;99.90
1534;DHT22;760;48.822;9.304;2022-12-07T13:52:14;6.00;99.90
1534;DHT22;760;48.822;9.304;2022-12-07T13:57:32;6.00;99.90
1534;DHT22;760;48.822;9.304;2022-12-07T14:00:03;6.00;99.90
1534;DHT22;760;48.822;9.304;2022-12-07T14:02:34;6.00;99.90
1534;DHT22;760;48.822;9.304;2022-12-07T14:07:55;6.10;99.90
1534;DHT22;760;48.822;9.304;2022-12-07T14:10:24;6.10;99.90
1534;DHT22;760;48.822;9.304;2022-12-07T14:12:50;6.00;99.90
1534;DHT22;760;48.822;9.304;2022-12-07T14:15:21;6.00;99.90
1534;DHT22;760;48.822;9.304;2022-12-07T14:17:52;6.00;99.90
1534;DHT22;760;48.822;9.304;2022-12-07T14:20:35;6.10;99.90
1534;DHT22;760;48.822;9.304;2022-12-07T14:23:02;6.10;99.90
1534;DHT22;760;48.822;9.304;2022-12-07T14:25:48;6.10;99.90
1534;DHT22;760;48.822;9.304;2022-12-07T14:28:30;6.10;99.90
1534;DHT22;760;48.822;9.304;2022-12-07T14:30:57;6.10;99.90
1534;DHT22;760;48.822;9.304;2022-12-07T14:33:24;6.10;99.90
1534;DHT22;760;48.822;9.304;2022-12-07T14:35:49;6.00;99.90
1534;DHT22;760;48.822;9.304;2022-12-07T14:38:15;6.00;99.90
1534;DHT22;760;48.822;9.304;2022-12-07T14:40:44;5.90;99.90
1534;DHT22;760;48.822;9.304;2022-12-07T14:43:12;5.90;99.90
1534;DHT22;760;48.822;9.304;2022-12-07T14:45:39;5.80;99.90
1534;DHT22;760;48.822;9.304;2022-12-07T14:48:06;5.80;99.90
1534;DHT22;760;48.822;9.304;2022-12-07T14:50:37;5.80;99.90
1534;DHT22;760;48.822;9.304;2022-12-07T14:53:10;5.70;99.90
1534;DHT22;760;48.822;9.304;2022-12-07T14:55:37;5.70;99.90
1534;DHT22;760;48.822;9.304;2022-12-07T14:58:02;5.60;99.90
1534;DHT22;760;48.822;9.304;2022-12-07T15:00:28;5.60;99.90
1534;DHT22;760;48.822;9.304;2022-12-07T15:02:54;5.60;99.90
1534;DHT22;760;48.822;9.304;2022-12-07T15:05:20;5.60;99.90
1534;DHT22;760;48.822;9.304;2022-12-07T15:07:47;5.60;99.90
1534;DHT22;760;48.822;9.304;2022-12-07T15:10:23;5.50;99.90
1534;DHT22;760;48.822;9.304;2022-12-07T15:12:49;5.50;99.90
1534;DHT22;760;48.822;9.304;2022-12-07T15:15:15;5.50;99.90
1534;DHT22;760;48.822;9.304;2022-12-07T15:17:41;5.50;99.90
1534;DHT22;760;48.822;9.304;2022-12-07T15:20:12;5.50;99.90
1534;DHT22;760;48.822;9.304;2022-12-07T15:22:38;5.50;99.90
1534;DHT22;760;48.822;9.304;2022-12-07T15:25:04;5.50;99.90
1534;DHT22;760;48.822;9.304;2022-12-07T15:27:31;5.40;99.90
1534;DHT22;760;48.822;9.304;2022-12-07T15:29:57;5.40;99.90
1534;DHT22;760;48.822;9.304;2022-12-07T15:32:22;5.40;99.90
1534;DHT22;760;48.822;9.304;2022-12-07T15:34:48;5.40;99.90
1534;DHT22;760;48.822;9.304;2022-12-07T15:37:15;5.30;99.90
1534;DHT22;760;48.822;9.304;2022-12-07T15:39:41;5.30;99.90
1534;DHT22;760;48.822;9.304;2022-12-07T15:42:06;5.20;99.90
1534;DHT22;760;48.822;9.304;2022-12-07T15:44:32;5.20;99.90
1534;DHT22;760;48.822;9.304;2022-12-07T15:47:16;5.20;99.90
1534;DHT22;760;48.822;9.304;2022-12-07T15:49:42;5.20;99.90
1534;DHT22;760;48.822;9.304;2022-12-07T15:52:08;5.10;99.90
1534;DHT22;760;48.822;9.304;2022-12-07T15:54:33;5.10;99.90
1534;DHT22;760;48.822;9.304;2022-12-07T15:56:59;5.10;99.90
1534;DHT22;760;48.822;9.304;2022-12-07T15:59:27;5.10;99.90
1534;DHT22;760;48.822;9.304;2022-12-07T16:01:53;5.00;99.90
1534;DHT22;760;48.822;9.304;2022-12-07T16:04:19;5.00;99.90
1534;DHT22;760;48.822;9.304;2022-12-07T16:06:44;5.00;99.90
1534;DHT22;760;48.822;9.304;2022-12-07T16:09:10;5.00;99.90
1534;DHT22;760;48.822;9.304;2022-12-07T16:11:35;5.00;99.90
1534;DHT22;760;48.822;9.304;2022-12-07T16:14:01;5.00;99.90
1534;DHT22;760;48.822;9.304;2022-12-07T16:16:27;5.00;99.90
1534;DHT22;760;48.822;9.304;2022-12-07T16:18:53;5.00;99.90
1534;DHT22;760;48.822;9.304;2022-12-07T16:21:19;5.00;99.90
1534;DHT22;760;48.822;9.304;2022-12-07T16:23:45;5.00;99.90
1534;DHT22;760;48.822;9.304;2022-12-07T16:26:19;5.00;99.90
1534;DHT22;760;48.822;9.304;2022-12-07T16:28:48;4.90;99.90
1534;DHT22;760;48.822;9.304;2022-12-07T16:31:16;4.90;99.90
1534;DHT22;760;48.822;9.304;2022-12-07T16:33:43;4.90;99.90
1534;DHT22;760;48.822;9.304;2022-12-07T16:36:10;4.90;99.90
1534;DHT22;760;48.822;9.304;2022-12-07T16:38:36;4.90;99.90
1534;DHT22;760;48.822;9.304;2022-12-07T16:41:02;4.80;99.90
1534;DHT22;760;48.822;9.304;2022-12-07T16:43:28;4.80;99.90
1534;DHT22;760;48.822;9.304;2022-12-07T16:45:53;4.80;99.90
1534;DHT22;760;48.822;9.304;2022-12-07T16:48:19;4.80;99.90
1534;DHT22;760;48.822;9.304;2022-12-07T16:50:45;4.70;99.90
1534;DHT22;760;48.822;9.304;2022-12-07T16:53:12;4.70;99.90
1534;DHT22;760;48.822;9.304;2022-12-07T16:55:40;4.60;99.90
1534;DHT22;760;48.822;9.304;2022-12-07T16:58:06;4.50;99.90
1534;DHT22;760;48.822;9.304;2022-12-07T17:00:32;4.40;99.90
1534;DHT22;760;48.822;9.304;2022-12-07T17:02:58;4.40;99.90
1534;DHT22;760;48.822;9.304;2022-12-07T17:05:24;4.30;99.90
1534;DHT22;760;48.822;9.304;2022-12-07T17:07:50;4.20;99.90
1534;DHT22;760;48.822;9.304;2022-12-07T17:10:16;4.10;99.90
1534;DHT22;760;48.822;9.304;2022-12-07T17:12:42;4.10;99.90
1534;DHT22;760;48.822;9.304;2022-12-07T17:15:08;4.00;99.90
1534;DHT22;760;48.822;9.304;2022-12-07T17:17:47;4.00;99.90
1534;DHT22;760;48.822;9.304;2022-12-07T17:20:16;3.90;99.90
1534;DHT22;760;48.822;9.304;2022-12-07T17:22:42;3.90;99.90
1534;DHT22;760;48.822;9.304;2022-12-07T17:25:08;3.90;99.90
1534;DHT22;760;48.822;9.304;2022-12-07T17:27:35;3.90;99.90
1534;DHT22;760;48.822;9.304;2022-12-07T17:30:01;3.90;99.90
1534;DHT22;760;48.822;9.304;2022-12-07T17:32:26;4.00;99.90
1534;DHT22;760;48.822;9.304;2022-12-07T17:34:52;4.00;99.90
1534;DHT22;760;48.822;9.304;2022-12-07T17:37:17;4.00;99.90
1534;DHT22;760;48.822;9.304;2022-12-07T17:39:43;4.10;99.90
1534;DHT22;760;48.822;9.304;2022-12-07T17:42:09;4.10;99.90
1534;DHT22;760;48.822;9.304;2022-12-07T17:44:53;4.20;99.90
1534;DHT22;760;48.822;9.304;2022-12-07T17:47:18;4.20;99.90
1534;DHT22;760;48.822;9.304;2022-12-07T17:49:46;4.20;99.90
1534;DHT22;760;48.822;9.304;2022-12-07T17:52:12;4.20;99.90
1534;DHT22;760;48.822;9.304;2022-12-07T17:54:56;4.20;99.90
1534;DHT22;760;48.822;9.304;2022-12-07T17:57:22;4.30;99.90
1534;DHT22;760;48.822;9.304;2022-12-07T17:59:48;4.30;99.90
1534;DHT22;760;48.822;9.304;2022-12-07T18:02:14;4.30;99.90
1534;DHT22;760;48.822;9.304;2022-12-07T18:04:39;4.40;99.90
1534;DHT22;760;48.822;9.304;2022-12-07T18:07:07;4.40;99.90
1534;DHT22;760;48.822;9.304;2022-12-07T18:09:33;4.40;99.90
1534;DHT22;760;48.822;9.304;2022-12-07T18:11:59;4.40;99.90
1534;DHT22;760;48.822;9.304;2022-12-07T18:14:25;4.40;99.90
1534;DHT22;760;48.822;9.304;2022-12-07T18:16:50;4.40;99.90
1534;DHT22;760;48.822;9.304;2022-12-07T18:19:16;4.50;99.90
1534;DHT22;760;48.822;9.304;2022-12-07T18:21:42;4.50;99.90
1534;DHT22;760;48.822;9.304;2022-12-07T18:24:10;4.50;99.90
1534;DHT22;760;48.822;9.304;2022-12-07T18:26:36;4.50;99.90
1534;DHT22;760;48.822;9.304;2022-12-07T18:29:04;4.60;99.90
1534;DHT22;760;48.822;9.304;2022-12-07T18:31:30;4.50;99.90
1534;DHT22;760;48.822;9.304;2022-12-07T18:34:02;4.50;99.90
1534;DHT22;760;48.822;9.304;2022-12-07T18:36:29;4.50;99.90
1534;DHT22;760;48.822;9.304;2022-12-07T18:38:55;4.50;99.90
1534;DHT22;760;48.822;9.304;2022-12-07T18:41:20;4.50;99.90
1534;DHT22;760;48.822;9.304;2022-12-07T18:43:46;4.50;99.90
1534;DHT22;760;48.822;9.304;2022-12-07T18:46:14;4.50;99.90
1534;DHT22;760;48.822;9.304;2022-12-07T18:48:40;4.40;99.90
1534;DHT22;760;48.822;9.304;2022-12-07T18:51:07;4.40;99.90
1534;DHT22;760;48.822;9.304;2022-12-07T18:53:34;4.50;99.90
1534;DHT22;760;48.822;9.304;2022-12-07T18:56:13;4.50;99.90
1534;DHT22;760;48.822;9.304;2022-12-07T18:58:39;4.50;99.90
1534;DHT22;760;48.822;9.304;2022-12-07T19:01:25;4.40;99.90
1534;DHT22;760;48.822;9.304;2022-12-07T19:03:51;4.40;99.90
1534;DHT22;760;48.822;9.304;2022-12-07T19:06:17;4.40;99.90
1534;DHT22;760;48.822;9.304;2022-12-07T19:08:43;4.40;99.90
1534;DHT22;760;48.822;9.304;2022-12-07T19:11:23;4.40;99.90
1534;DHT22;760;48.822;9.304;2022-12-07T19:14:07;4.40;99.90
1534;DHT22;760;48.822;9.304;2022-12-07T19:16:33;4.40;99.90
1534;DHT22;760;48.822;9.304;2022-12-07T19:18:59;4.40;99.90
1534;DHT22;760;48.822;9.304;2022-12-07T19:21:24;4.50;99.90
1534;DHT22;760;48.822;9.304;2022-12-07T19:23:52;4.50;99.90
1534;DHT22;760;48.822;9.304;2022-12-07T19:26:18;4.50;99.90
1534;DHT22;760;48.822;9.304;2022-12-07T19:28:43;4.50;99.90
1534;DHT22;760;48.822;9.304;2022-12-07T19:31:09;4.50;99.90
1534;DHT22;760;48.822;9.304;2022-12-07T19:33:38;4.60;99.90
1534;DHT22;760;48.822;9.304;2022-12-07T19:36:05;4.50;99.90
1534;DHT22;760;48.822;9.304;2022-12-07T19:38:31;4.50;99.90
1534;DHT22;760;48.822;9.304;2022-12-07T19:41:08;4.60;99.90
1534;DHT22;760;48.822;9.304;2022-12-07T19:43:58;4.60;99.90
1534;DHT22;760;48.822;9.304;2022-12-07T19:46:24;4.60;99.90
1534;DHT22;760;48.822;9.304;2022-12-07T19:48:50;4.50;99.90
1534;DHT22;760;48.822;9.304;2022-12-07T19:51:15;4.50;99.90
1534;DHT22;760;48.822;9.304;2022-12-07T19:53:41;4.40;99.90
1534;DHT22;760;48.822;9.304;2022-12-07T19:56:07;4.40;99.90
1534;DHT22;760;48.822;9.304;2022-12-07T19:58:32;4.40;99.90
1534;DHT22;760;48.822;9.304;2022-12-07T20:01:04;4.40;99.90
1534;DHT22;760;48.822;9.304;2022-12-07T20:03:30;4.40;99.90
1534;DHT22;760;48.822;9.304;2022-12-07T20:05:56;4.40;99.90
1534;DHT22;760;48.822;9.304;2022-12-07T20:08:23;4.40;99.90
1534;DHT22;760;48.822;9.304;2022-12-07T20:10:49;4.30;99.90
1534;DHT22;760;48.822;9.304;2022-12-07T20:13:18;4.30;99.90
1534;DHT22;760;48.822;9.304;2022-12-07T20:15:53;4.30;99.90
1534;DHT22;760;48.822;9.304;2022-12-07T20:18:19;4.30;99.90
1534;DHT22;760;48.822;9.304;2022-12-07T20:20:58;4.30;99.90
1534;DHT22;760;48.822;9.304;2022-12-07T20:23:25;4.30;99.90
1534;DHT22;760;48.822;9.304;2022-12-07T20:25:51;4.20;99.90
1534;DHT22;760;48.822;9.304;2022-12-07T20:28:17;4.20;99.90
1534;DHT22;760;48.822;9.304;2022-12-07T20:30:51;4.20;99.90
1534;DHT22;760;48.822;9.304;2022-12-07T20:33:17;4.30;99.90
1534;DHT22;760;48.822;9.304;2022-12-07T20:35:43;4.20;99.90
1534;DHT22;760;48.822;9.304;2022-12-07T20:38:10;4.30;99.90
1534;DHT22;760;48.822;9.304;2022-12-07T20:40:36;4.20;99.90
1534;DHT22;760;48.822;9.304;2022-12-07T20:43:02;4.20;99.90
1534;DHT22;760;48.822;9.304;2022-12-07T20:45:28;4.20;99.90
1534;DHT22;760;48.822;9.304;2022-12-07T20:47:54;4.20;99.90
1534;DHT22;760;48.822;9.304;2022-12-07T20:50:19;4.20;99.90
1534;DHT22;760;48.822;9.304;2022-12-07T20:52:45;4.20;99.90
1534;DHT22;760;48.822;9.304;2022-12-07T20:55:11;4.20;99.90
1534;DHT22;760;48.822;9.304;2022-12-07T20:57:37;4.20;99.90
1534;DHT22;760;48.822;9.304;2022-12-07T21:00:06;4.20;99.90
1534;DHT22;760;48.822;9.304;2022-12-07T21:02:33;4.20;99.90
1534;DHT22;760;48.822;9.304;2022-12-07T21:04:58;4.20;99.90
1534;DHT22;760;48.822;9.304;2022-12-07T21:07:24;4.20;99.90
1534;DHT22;760;48.822;9.304;2022-12-07T21:09:51;4.20;99.90
1534;DHT22;760;48.822;9.304;2022-12-07T21:12:17;4.20;99.90
1534;DHT22;760;48.822;9.304;2022-12-07T21:14:43;4.20;99.90
1534;DHT22;760;48.822;9.304;2022-12-07T21:17:09;4.20;99.90
1534;DHT22;760;48.822;9.304;2022-12-07T21:19:36;4.20;99.90
1534;DHT22;760;48.822;9.304;2022-12-07T21:22:02;4.30;99.90
1534;DHT22;760;48.822;9.304;2022-12-07T21:24:27;4.30;99.90
1534;DHT22;760;48.822;9.304;2022-12-07T21:26:53;4.30;99.90
1534;DHT22;760;48.822;9.304;2022-12-07T21:29:18;4.30;99.90
1534;DHT22;760;48.822;9.304;2022-12-07T21:31:44;4.30;99.90
1534;DHT22;760;48.822;9.304;2022-12-07T21:34:10;4.30;99.90
1534;DHT22;760;48.822;9.304;2022-12-07T21:36:35;4.20;99.90
1534;DHT22;760;48.822;9.304;2022-12-07T21:39:01;4.20;99.90
1534;DHT22;760;48.822;9.304;2022-12-07T21:41:29;4.20;99.90
1534;DHT22;760;48.822;9.304;2022-12-07T21:43:56;4.20;99.90
1534;DHT22;760;48.822;9.304;2022-12-07T21:46:24;4.30;99.90
1534;DHT22;760;48.822;9.304;2022-12-07T21:48:51;4.30;99.90
1534;DHT22;760;48.822;9.304;2022-12-07T21:51:17;4.30;99.90
1534;DHT22;760;48.822;9.304;2022-12-07T21:53:43;4.30;99.90
1534;DHT22;760;48.822;9.304;2022-12-07T21:56:26;4.30;99.90
1534;DHT22;760;48.822;9.304;2022-12-07T21:58:52;4.30;99.90
1534;DHT22;760;48.822;9.304;2022-12-07T22:01:24;4.30;99.90
1534;DHT22;760;48.822;9.304;2022-12-07T22:03:51;4.30;99.90
1534;DHT22;760;48.822;9.304;2022-12-07T22:06:20;4.30;99.90
1534;DHT22;760;48.822;9.304;2022-12-07T22:08:46;4.20;99.90
1534;DHT22;760;48.822;9.304;2022-12-07T22:11:13;4.10;99.90
1534;DHT22;760;48.822;9.304;2022-12-07T22:13:40;4.00;99.90
1534;DHT22;760;48.822;9.304;2022-12-07T22:16:25;3.90;99.90
1534;DHT22;760;48.822;9.304;2022-12-07T22:18:52;3.80;99.90
1534;DHT22;760;48.822;9.304;2022-12-07T22:21:18;3.80;99.90
1534;DHT22;760;48.822;9.304;2022-12-07T22:23:43;3.70;99.90
1534;DHT22;760;48.822;9.304;2022-12-07T22:26:10;3.70;99.90
1534;DHT22;760;48.822;9.304;2022-12-07T22:28:37;3.60;99.90
1534;DHT22;760;48.822;9.304;2022-12-07T22:31:05;3.50;99.90
1534;DHT22;760;48.822;9.304;2022-12-07T22:33:31;3.50;99.90
1534;DHT22;760;48.822;9.304;2022-12-07T22:35:57;3.40;99.90
1534;DHT22;760;48.822;9.304;2022-12-07T22:38:22;3.40;99.90
1534;DHT22;760;48.822;9.304;2022-12-07T22:40:48;3.40;99.90
1534;DHT22;760;48.822;9.304;2022-12-07T22:43:14;3.30;99.90
1534;DHT22;760;48.822;9.304;2022-12-07T22:45:39;3.20;99.90
1534;DHT22;760;48.822;9.304;2022-12-07T22:48:06;3.20;99.90
1534;DHT22;760;48.822;9.304;2022-12-07T22:50:32;3.10;99.90
1534;DHT22;760;48.822;9.304;2022-12-07T22:52:58;3.00;99.90
1534;DHT22;760;48.822;9.304;2022-12-07T22:55:24;3.00;99.90
1534;DHT22;760;48.822;9.304;2022-12-07T22:57:50;2.90;99.90
